createdAt,value
2017-11-21T00:00:37.268Z,100738.73
2017-11-21T00:03:12.396Z,100733.91
2017-11-21T00:05:45.607Z,100733.97
2017-11-21T00:08:24.529Z,100735.47
2017-11-21T00:10:59.421Z,100735.69
2017-11-21T00:13:37.331Z,100736.91
2017-11-21T00:16:14.757Z,100744.64
2017-11-21T00:18:48.056Z,100734.95
2017-11-21T00:21:20.239Z,100735.69
2017-11-21T00:23:59.664Z,100736.75
2017-11-21T00:26:33.350Z,100735.21
2017-11-21T00:29:06.641Z,100731.86
2017-11-21T00:31:40.839Z,100729.98
2017-11-21T00:34:11.908Z,100737.16
2017-11-21T00:36:43.634Z,100745.12
2017-11-21T00:39:16.254Z,100733.89
2017-11-21T00:44:34.231Z,100744.25
2017-11-21T00:47:05.774Z,100741.27
2017-11-21T00:49:37.755Z,100742.16
2017-11-21T00:54:49.138Z,100734.44
2017-11-21T00:57:21.632Z,100737.69
2017-11-21T00:59:59.339Z,100742.82
2017-11-21T01:02:32.426Z,100691.91
2017-11-21T01:05:04.735Z,100743.58
2017-11-21T01:07:36.832Z,100737.25
2017-11-21T01:10:09.250Z,100742.28
2017-11-21T01:12:41.027Z,100739.34
2017-11-21T01:15:15.424Z,100744.42
2017-11-21T01:17:47.129Z,100740.00
2017-11-21T01:20:19.755Z,100743.58
2017-11-21T01:22:55.321Z,100745.09
2017-11-21T01:25:27.434Z,100747.45
2017-11-21T01:27:59.122Z,100751.78
2017-11-21T01:30:32.826Z,100740.50
2017-11-21T01:33:05.808Z,100748.47
2017-11-21T01:35:37.528Z,100755.15
2017-11-21T01:38:09.623Z,100755.95
2017-11-21T01:40:41.931Z,100754.56
2017-11-21T01:43:14.368Z,100753.70
2017-11-21T01:45:46.648Z,100745.20
2017-11-21T01:48:20.889Z,100747.75
2017-11-21T01:50:52.660Z,100746.88
2017-11-21T01:53:25.874Z,100749.52
2017-11-21T01:55:58.076Z,100755.37
2017-11-21T01:58:31.173Z,100746.48
2017-11-21T02:03:38.578Z,100748.72
2017-11-21T02:06:10.387Z,100754.52
2017-11-21T02:08:43.588Z,100753.67
2017-11-21T02:11:15.382Z,100756.88
2017-11-21T02:13:59.308Z,100748.65
2017-11-21T02:16:33.674Z,100754.59
2017-11-21T02:19:04.259Z,100747.98
2017-11-21T02:21:35.234Z,100746.27
2017-11-21T02:24:15.356Z,100746.55
2017-11-21T02:26:48.064Z,100740.18
2017-11-21T02:29:20.669Z,100748.23
2017-11-21T02:31:53.065Z,100750.52
2017-11-21T02:34:24.746Z,100751.61
2017-11-21T02:36:56.660Z,100755.47
2017-11-21T02:39:27.259Z,100749.43
2017-11-21T02:41:57.407Z,100748.16
2017-11-21T02:44:29.442Z,100748.66
2017-11-21T02:47:01.544Z,100747.78
2017-11-21T02:49:34.150Z,100742.78
2017-11-21T02:54:44.965Z,100758.22
2017-11-21T02:57:16.871Z,100757.94
2017-11-21T02:59:48.771Z,100750.34
2017-11-21T03:02:25.277Z,100749.26
2017-11-21T03:04:56.985Z,100746.41
2017-11-21T03:07:29.388Z,100750.27
2017-11-21T03:10:01.394Z,100753.11
2017-11-21T03:12:34.796Z,100749.00
2017-11-21T03:15:08.595Z,100755.72
2017-11-21T03:17:41.286Z,100751.29
2017-11-21T03:20:21.692Z,100753.09
2017-11-21T03:25:05.596Z,100752.94
2017-11-21T03:27:36.988Z,100758.39
2017-11-21T03:30:10.082Z,100754.28
2017-11-21T03:32:43.784Z,100757.87
2017-11-21T03:35:17.379Z,100752.17
2017-11-21T03:37:49.578Z,100753.33
2017-11-21T03:40:22.878Z,100753.75
2017-11-21T03:42:56.181Z,100752.80
2017-11-21T03:45:28.881Z,100746.95
2017-11-21T03:48:00.594Z,100751.61
2017-11-21T03:50:31.006Z,100757.91
2017-11-21T03:53:03.882Z,100750.13
2017-11-21T03:55:35.483Z,100756.53
2017-11-21T03:58:07.653Z,100754.81
2017-11-21T04:00:41.893Z,100746.48
2017-11-21T04:03:16.893Z,100753.27
2017-11-21T04:05:52.212Z,100755.97
2017-11-21T04:08:26.094Z,100759.63
2017-11-21T04:10:57.778Z,100765.08
2017-11-21T04:13:29.374Z,100756.14
2017-11-21T04:16:07.990Z,100755.80
2017-11-21T04:18:41.585Z,100751.68
2017-11-21T04:21:16.990Z,100756.74
2017-11-21T04:23:49.877Z,100756.57
2017-11-21T04:26:21.483Z,100752.24
2017-11-21T04:28:53.880Z,100754.88
2017-11-21T04:31:24.656Z,100747.95
2017-11-21T04:33:56.310Z,100758.05
2017-11-21T04:36:29.628Z,100766.88
2017-11-21T04:39:02.337Z,100762.41
2017-11-21T04:41:36.743Z,100763.67
2017-11-21T04:44:10.070Z,100758.96
2017-11-21T04:46:41.084Z,100758.82
2017-11-21T04:49:14.572Z,100755.30
2017-11-21T04:51:47.955Z,100757.38
2017-11-21T04:54:22.156Z,100760.92
2017-11-21T04:56:55.861Z,100762.90
2017-11-21T04:59:27.575Z,100766.38
2017-11-21T05:02:00.580Z,100771.55
2017-11-21T05:04:32.862Z,100760.09
2017-11-21T05:07:04.858Z,100760.13
2017-11-21T05:09:38.661Z,100754.45
2017-11-21T05:12:11.257Z,100750.80
2017-11-21T05:14:44.048Z,100758.67
2017-11-21T05:17:15.847Z,100762.69
2017-11-21T05:19:47.851Z,100764.34
2017-11-21T05:22:21.049Z,100755.83
2017-11-21T05:24:53.644Z,100769.93
2017-11-21T05:27:25.448Z,100770.56
2017-11-21T05:30:04.051Z,100769.30
2017-11-21T05:32:46.443Z,100771.92
2017-11-21T05:35:18.048Z,100775.20
2017-11-21T05:37:50.644Z,100775.06
2017-11-21T05:40:22.433Z,100755.02
2017-11-21T05:42:55.631Z,100766.22
2017-11-21T05:45:28.227Z,100763.30
2017-11-21T05:48:03.476Z,100771.88
2017-11-21T05:50:35.663Z,100775.30
2017-11-21T05:53:08.519Z,100773.61
2017-11-21T05:55:40.914Z,100776.55
2017-11-21T05:58:12.717Z,100773.72
2017-11-21T06:00:45.115Z,100772.31
2017-11-21T06:03:16.831Z,100764.66
2017-11-21T06:05:49.617Z,100775.13
2017-11-21T06:08:21.217Z,100767.12
2017-11-21T06:10:53.694Z,100769.89
2017-11-21T06:13:27.819Z,100770.42
2017-11-21T06:16:00.227Z,100766.31
2017-11-21T06:18:31.821Z,100765.05
2017-11-21T06:21:05.630Z,100765.32
2017-11-21T06:23:40.668Z,100759.42
2017-11-21T06:26:13.735Z,100746.65
2017-11-21T06:28:45.337Z,100758.57
2017-11-21T06:31:17.532Z,100761.48
2017-11-21T06:33:50.350Z,100773.76
2017-11-21T06:36:22.246Z,100774.64
2017-11-21T06:38:54.734Z,100779.36
2017-11-21T06:41:26.546Z,100783.27
2017-11-21T06:43:58.348Z,100780.77
2017-11-21T06:46:30.733Z,100755.16
2017-11-21T06:49:02.545Z,100768.42
2017-11-21T06:51:34.454Z,100781.36
2017-11-21T06:59:51.695Z,100788.08
2017-11-21T07:02:24.180Z,100783.02
2017-11-21T07:07:58.783Z,100781.56
2017-11-21T07:10:32.636Z,100783.64
2017-11-21T07:13:06.892Z,100783.25
2017-11-21T07:15:39.189Z,100787.69
2017-11-21T07:18:11.887Z,100790.88
2017-11-21T07:20:45.808Z,100798.17
2017-11-21T07:23:26.046Z,100791.49
2017-11-21T07:26:04.491Z,100788.33
2017-11-21T07:28:37.717Z,100793.47
2017-11-21T07:31:12.181Z,100793.18
2017-11-21T07:33:44.322Z,100790.86
2017-11-21T07:36:16.713Z,100790.72
2017-11-21T07:38:50.640Z,100793.67
2017-11-21T07:41:26.021Z,100793.77
2017-11-21T07:44:04.882Z,100786.98
2017-11-21T07:46:38.022Z,100789.02
2017-11-21T07:49:10.811Z,100792.11
2017-11-21T07:51:45.511Z,100784.88
2017-11-21T07:54:20.028Z,100791.23
2017-11-21T07:56:53.228Z,100789.58
2017-11-21T07:59:27.739Z,100791.27
2017-11-21T08:02:00.648Z,100791.69
2017-11-21T08:04:36.363Z,100797.61
2017-11-21T08:07:18.680Z,100787.51
2017-11-21T08:09:52.670Z,100795.30
2017-11-21T08:12:24.690Z,100792.59
2017-11-21T08:14:59.077Z,100786.55
2017-11-21T08:17:31.897Z,100787.94
2017-11-21T08:20:03.879Z,100785.66
2017-11-21T08:22:38.235Z,100783.48
2017-11-21T08:25:11.598Z,100781.29
2017-11-21T08:27:51.609Z,100786.88
2017-11-21T08:30:26.791Z,100783.31
2017-11-21T08:32:59.387Z,100771.39
2017-11-21T08:35:30.978Z,100782.86
2017-11-21T08:38:02.977Z,100786.98
2017-11-21T08:40:35.979Z,100776.96
2017-11-21T08:43:09.266Z,100780.10
2017-11-21T08:45:41.763Z,100779.56
2017-11-21T08:48:22.575Z,100791.95
2017-11-21T08:50:55.301Z,100783.63
2017-11-21T08:53:27.331Z,100796.45
2017-11-21T08:56:00.062Z,100803.02
2017-11-21T08:58:32.164Z,100803.20
2017-11-21T09:01:04.367Z,100815.38
2017-11-21T09:03:38.372Z,100809.02
2017-11-21T09:06:12.429Z,100816.95
2017-11-21T09:08:45.089Z,100822.90
2017-11-21T09:11:17.269Z,100831.58
2017-11-21T09:13:47.765Z,100825.72
2017-11-21T09:16:31.301Z,100829.80
2017-11-21T09:19:03.811Z,100795.42
2017-11-21T09:21:36.969Z,100827.18
2017-11-21T09:24:08.667Z,100829.34
2017-11-21T09:26:43.766Z,100827.20
2017-11-21T09:29:17.277Z,100820.69
2017-11-21T09:31:54.075Z,100824.45
2017-11-21T09:34:27.371Z,100815.84
2017-11-21T09:36:59.490Z,100806.48
2017-11-21T09:39:46.423Z,100823.96
2017-11-21T09:42:20.097Z,100811.58
2017-11-21T09:44:56.759Z,100818.02
2017-11-21T09:47:40.933Z,100821.14
2017-11-21T09:50:21.621Z,100818.19
2017-11-21T09:52:54.617Z,100831.10
2017-11-21T09:55:27.366Z,100830.09
2017-11-21T09:58:03.153Z,100825.16
2017-11-21T10:00:35.745Z,100826.53
2017-11-21T10:03:08.648Z,100841.42
2017-11-21T10:05:40.848Z,100827.20
2017-11-21T10:08:14.573Z,100818.86
2017-11-21T10:10:47.471Z,100822.91
2017-11-21T10:13:20.973Z,100832.80
2017-11-21T10:15:59.083Z,100825.41
2017-11-21T10:18:30.888Z,100828.33
2017-11-21T10:21:03.799Z,100821.57
2017-11-21T10:23:42.511Z,100827.73
2017-11-21T10:26:20.332Z,100823.47
2017-11-21T10:28:56.160Z,100821.57
2017-11-21T10:31:29.318Z,100819.56
2017-11-21T10:34:01.452Z,100830.69
2017-11-21T10:36:34.235Z,100818.66
2017-11-21T10:39:05.927Z,100816.13
2017-11-21T10:41:38.425Z,100820.27
2017-11-21T10:44:11.333Z,100819.95
2017-11-21T10:46:43.828Z,100818.94
2017-11-21T10:49:15.614Z,100798.70
2017-11-21T10:52:18.733Z,100808.48
2017-11-21T10:54:56.107Z,100811.68
2017-11-21T11:00:07.127Z,100808.73
2017-11-21T11:02:42.017Z,100808.20
2017-11-21T11:05:13.919Z,100813.66
2017-11-21T11:07:47.520Z,100811.76
2017-11-21T11:10:25.739Z,100809.22
2017-11-21T11:13:06.315Z,100791.14
2017-11-21T11:15:38.443Z,100774.12
2017-11-21T11:18:13.733Z,100809.86
2017-11-21T11:20:49.134Z,100816.82
2017-11-21T11:23:26.122Z,100808.80
2017-11-21T11:25:57.852Z,100805.67
2017-11-21T11:28:33.926Z,100805.34
2017-11-21T11:31:08.702Z,100798.98
2017-11-21T11:33:40.504Z,100804.41
2017-11-21T11:36:18.431Z,100808.03
2017-11-21T11:38:53.220Z,100799.83
2017-11-21T11:41:29.919Z,100802.92
2017-11-21T11:44:07.951Z,100825.44
2017-11-21T11:49:57.542Z,100802.58
2017-11-21T11:52:43.522Z,100795.99
2017-11-21T11:55:24.908Z,100794.09
2017-11-21T11:57:59.162Z,100791.56
2017-11-21T12:00:32.658Z,100786.47
2017-11-21T12:03:05.650Z,100791.63
2017-11-21T12:05:39.440Z,100787.41
2017-11-21T12:08:12.965Z,100766.56
2017-11-21T12:10:45.374Z,100785.69
2017-11-21T12:13:17.662Z,100780.00
2017-11-21T12:15:52.370Z,100783.13
2017-11-21T12:18:25.369Z,100783.64
2017-11-21T12:20:59.070Z,100773.23
2017-11-21T12:23:32.583Z,100777.97
2017-11-21T12:26:04.583Z,100775.77
2017-11-21T12:28:37.264Z,100780.16
2017-11-21T12:31:11.800Z,100773.96
2017-11-21T12:33:47.766Z,100776.39
2017-11-21T12:36:31.437Z,100771.44
2017-11-21T12:39:05.739Z,100758.82
2017-11-21T12:41:38.676Z,100775.11
2017-11-21T12:44:12.032Z,100779.01
2017-11-21T12:46:49.360Z,100768.73
2017-11-21T12:49:22.428Z,100771.20
2017-11-21T12:51:58.252Z,100770.22
2017-11-21T12:54:31.604Z,100774.65
2017-11-21T12:57:05.212Z,100769.37
2017-11-21T12:59:44.484Z,100769.62
2017-11-21T13:02:19.443Z,100764.66
2017-11-21T13:04:50.038Z,100771.45
2017-11-21T13:07:23.819Z,100766.06
2017-11-21T13:10:01.866Z,100772.91
2017-11-21T13:12:36.151Z,100778.69
2017-11-21T13:15:18.516Z,100777.67
2017-11-21T13:17:50.800Z,100778.23
2017-11-21T13:20:23.939Z,100784.66
2017-11-21T13:23:00.361Z,100776.20
2017-11-21T13:25:34.774Z,100777.91
2017-11-21T13:28:16.583Z,100781.33
2017-11-21T13:30:54.701Z,100785.06
2017-11-21T13:33:29.594Z,100772.99
2017-11-21T13:36:11.418Z,100778.06
2017-11-21T13:38:47.594Z,100773.03
2017-11-21T13:41:19.579Z,100777.03
2017-11-21T13:44:00.591Z,100770.14
2017-11-21T13:46:35.290Z,100771.52
2017-11-21T13:49:09.292Z,100762.90
2017-11-21T13:51:43.423Z,100752.31
2017-11-21T13:54:23.703Z,100747.03
2017-11-21T13:57:09.073Z,100753.50
2017-11-21T13:59:46.240Z,100759.98
2017-11-21T14:02:21.106Z,100765.01
2017-11-21T14:04:55.019Z,100762.83
2017-11-21T14:07:30.325Z,100766.88
2017-11-21T14:10:05.106Z,100765.15
2017-11-21T14:12:37.862Z,100775.98
2017-11-21T14:15:19.810Z,100760.92
2017-11-21T14:18:09.323Z,100779.67
2017-11-21T14:20:51.421Z,100780.34
2017-11-21T14:26:03.228Z,100767.81
2017-11-21T14:28:55.794Z,100777.20
2017-11-21T14:31:34.028Z,100771.61
2017-11-21T14:34:11.639Z,100764.69
2017-11-21T14:36:51.176Z,100755.24
2017-11-21T14:39:24.015Z,100756.86
2017-11-21T14:45:22.790Z,100761.19
2017-11-21T14:47:56.167Z,100761.84
2017-11-21T14:50:32.275Z,100762.36
2017-11-21T14:53:03.528Z,100761.40
2017-11-21T14:55:34.599Z,100761.58
2017-11-21T14:58:16.019Z,100756.23
2017-11-21T15:00:59.528Z,100755.44
2017-11-21T15:03:32.742Z,100754.17
2017-11-21T15:06:08.541Z,100755.47
2017-11-21T15:08:40.750Z,100749.20
2017-11-21T15:11:19.122Z,100767.36
2017-11-21T15:14:13.438Z,100777.38
2017-11-21T15:16:54.923Z,100776.77
2017-11-21T15:22:03.742Z,100772.73
2017-11-21T15:24:37.718Z,100768.44
2017-11-21T15:27:11.952Z,100772.28
2017-11-21T15:29:44.231Z,100773.59
2017-11-21T15:32:18.640Z,100768.24
2017-11-21T15:34:50.555Z,100781.50
2017-11-21T15:37:22.473Z,100783.47
2017-11-21T15:39:55.438Z,100775.87
2017-11-21T15:42:28.052Z,100768.67
2017-11-21T15:45:07.037Z,100762.86
2017-11-21T15:47:40.756Z,100772.99
2017-11-21T15:50:14.649Z,100769.62
2017-11-21T15:52:45.605Z,100772.19
2017-11-21T15:55:32.850Z,100771.20
2017-11-21T15:58:06.459Z,100773.30
2017-11-21T16:00:45.338Z,100757.73
2017-11-21T16:03:20.545Z,100766.09
2017-11-21T16:08:22.240Z,100767.48
2017-11-21T16:10:54.612Z,100761.12
2017-11-21T16:13:32.707Z,100767.39
2017-11-21T16:16:16.229Z,100761.80
2017-11-21T16:18:56.541Z,100779.83
2017-11-21T16:21:31.743Z,100757.91
2017-11-21T16:24:07.223Z,100756.76
2017-11-21T16:26:46.938Z,100756.36
2017-11-21T16:29:19.822Z,100759.94
2017-11-21T16:32:08.158Z,100739.39
2017-11-21T16:34:49.002Z,100765.60
2017-11-21T16:37:22.669Z,100756.66
2017-11-21T16:40:02.041Z,100754.54
2017-11-21T16:42:33.817Z,100764.61
2017-11-21T16:45:10.745Z,100767.51
2017-11-21T16:47:58.847Z,100755.69
2017-11-21T16:50:30.629Z,100754.77
2017-11-21T16:53:22.620Z,100776.02
2017-11-21T16:56:00.016Z,100755.27
2017-11-21T16:58:41.236Z,100759.20
2017-11-21T17:01:30.082Z,100767.92
2017-11-21T17:04:10.530Z,100786.84
2017-11-21T17:06:46.921Z,100779.11
2017-11-21T17:12:21.068Z,100768.67
2017-11-21T17:14:55.367Z,100767.50
2017-11-21T17:17:30.769Z,100767.79
2017-11-21T17:20:05.967Z,100773.63
2017-11-21T17:22:41.096Z,100761.59
2017-11-21T17:25:14.077Z,100770.50
2017-11-21T17:27:59.787Z,100759.63
2017-11-21T17:30:34.474Z,100775.87
2017-11-21T17:33:11.901Z,100772.11
2017-11-21T17:35:42.751Z,100777.59
2017-11-21T17:38:15.867Z,100773.22
2017-11-21T17:40:51.146Z,100762.62
2017-11-21T17:43:26.540Z,100768.73
2017-11-21T17:45:59.381Z,100768.70
2017-11-21T17:48:31.648Z,100763.10
2017-11-21T17:51:04.488Z,100759.27
2017-11-21T17:53:40.364Z,100761.49
2017-11-21T17:56:13.326Z,100763.58
2017-11-21T17:58:43.931Z,100764.75
2017-11-21T18:01:19.859Z,100691.89
2017-11-21T18:04:03.655Z,100754.23
2017-11-21T18:06:41.884Z,100765.22
2017-11-21T18:09:20.348Z,100762.13
2017-11-21T18:11:53.889Z,100761.01
2017-11-21T18:14:30.919Z,100761.16
2017-11-21T18:17:56.093Z,100762.59
2017-11-21T18:20:32.691Z,100758.33
2017-11-21T18:23:10.685Z,100746.70
2017-11-21T18:25:44.396Z,100755.47
2017-11-21T18:28:17.786Z,100758.25
2017-11-21T18:34:00.374Z,100754.48
2017-11-21T18:36:38.642Z,100751.15
2017-11-21T18:39:15.903Z,100744.17
2017-11-21T18:41:51.812Z,100756.06
2017-11-21T18:44:24.711Z,100748.19
2017-11-21T18:46:58.429Z,100752.02
2017-11-21T18:49:33.277Z,100754.16
2017-11-21T18:52:09.616Z,100743.13
2017-11-21T18:54:51.116Z,100739.89
2017-11-21T18:57:25.375Z,100739.55
2017-11-21T19:00:00.625Z,100745.66
2017-11-21T19:02:38.565Z,100723.12
2017-11-21T19:05:09.041Z,100732.75
2017-11-21T19:07:42.714Z,100750.84
2017-11-21T19:10:18.064Z,100740.17
2017-11-21T19:12:51.583Z,100738.34
2017-11-21T19:15:22.958Z,100739.36
2017-11-21T19:18:02.932Z,100741.80
2017-11-21T19:20:35.271Z,100734.46
2017-11-21T19:23:16.252Z,100746.11
2017-11-21T19:25:50.165Z,100736.59
2017-11-21T19:28:23.978Z,100730.18
2017-11-21T19:30:58.092Z,100730.90
2017-11-21T19:33:37.975Z,100737.69
2017-11-21T19:36:11.767Z,100740.77
2017-11-21T19:38:46.369Z,100733.79
2017-11-21T19:41:20.682Z,100682.92
2017-11-21T19:43:59.495Z,100727.92
2017-11-21T19:46:33.372Z,100729.41
2017-11-21T19:49:08.797Z,100727.41
2017-11-21T19:51:41.708Z,100720.23
2017-11-21T19:54:14.097Z,100722.40
2017-11-21T19:56:46.585Z,100734.98
2017-11-21T19:59:19.169Z,100731.95
2017-11-21T20:01:51.620Z,100736.23
2017-11-21T20:04:35.087Z,100737.29
2017-11-21T20:07:10.276Z,100732.82
2017-11-21T20:09:43.378Z,100721.34
2017-11-21T20:12:18.130Z,100726.61
2017-11-21T20:14:58.431Z,100723.67
2017-11-21T20:17:35.834Z,100708.66
2017-11-21T20:20:10.722Z,100730.55
2017-11-21T20:22:45.043Z,100724.55
2017-11-21T20:25:18.149Z,100720.34
2017-11-21T20:27:53.718Z,100720.55
2017-11-21T20:35:30.221Z,100714.70
2017-11-21T20:38:04.419Z,100693.03
2017-11-21T20:40:39.054Z,100687.70
2017-11-21T20:43:12.115Z,100692.89
2017-11-21T20:45:45.111Z,100690.02
2017-11-21T20:48:15.839Z,100702.88
2017-11-21T20:50:52.444Z,100711.46
2017-11-21T20:53:26.815Z,100707.45
2017-11-21T20:55:57.573Z,100697.95
2017-11-21T20:58:35.423Z,100701.75
2017-11-21T21:01:16.830Z,100707.11
2017-11-21T21:03:57.237Z,100704.25
2017-11-21T21:06:28.556Z,100703.73
2017-11-21T21:08:58.976Z,100700.06
2017-11-21T21:11:31.937Z,100704.52
2017-11-21T21:17:42.451Z,100697.78
2017-11-21T21:20:22.252Z,100696.22
2017-11-21T21:22:53.877Z,100692.20
2017-11-21T21:25:26.152Z,100684.32
2017-11-21T21:28:02.591Z,100687.48
2017-11-21T21:30:39.557Z,100683.66
2017-11-21T21:33:18.067Z,100668.08
2017-11-21T21:35:48.701Z,100682.84
2017-11-21T21:38:19.871Z,100677.51
2017-11-21T21:40:51.471Z,100657.73
2017-11-21T21:43:23.321Z,100676.52
2017-11-21T21:45:57.397Z,100667.27
2017-11-21T21:48:29.927Z,100672.11
2017-11-21T21:53:53.206Z,100671.56
2017-11-21T21:56:27.159Z,100663.16
2017-11-21T21:59:10.412Z,100668.47
2017-11-21T22:01:44.244Z,100653.02
2017-11-21T22:04:16.648Z,100645.06
2017-11-21T22:06:52.879Z,100656.14
2017-11-21T22:09:25.031Z,100656.63
2017-11-21T22:11:55.644Z,100646.56
2017-11-21T22:14:27.452Z,100657.23
2017-11-21T22:17:02.330Z,100662.06
2017-11-21T22:19:33.654Z,100632.23
2017-11-21T22:22:07.089Z,100640.43
2017-11-21T22:24:38.623Z,100636.67
2017-11-21T22:27:11.047Z,100632.51
2017-11-21T22:29:51.312Z,100634.02
2017-11-21T22:32:22.548Z,100611.02
2017-11-21T22:34:53.959Z,100615.59
2017-11-21T22:37:25.735Z,100627.72
2017-11-21T22:40:01.759Z,100618.87
2017-11-21T22:42:37.136Z,100602.58
2017-11-21T22:45:17.645Z,100617.95
2017-11-21T22:47:52.157Z,100602.05
2017-11-21T22:50:25.850Z,100607.81
2017-11-21T22:52:59.383Z,100620.52
2017-11-21T22:55:33.569Z,100612.41
2017-11-21T22:58:04.783Z,100602.69
2017-11-21T23:00:36.050Z,100611.92
2017-11-21T23:03:10.003Z,100617.69
2017-11-21T23:05:44.156Z,100605.54
2017-11-21T23:08:17.896Z,100611.39
2017-11-21T23:10:59.346Z,100613.47
2017-11-21T23:13:34.769Z,100611.27
2017-11-21T23:16:07.566Z,100601.91
2017-11-21T23:18:39.598Z,100608.75
2017-11-21T23:21:25.817Z,100603.25
2017-11-21T23:24:05.390Z,100606.43
2017-11-21T23:26:39.442Z,100590.22
2017-11-21T23:29:20.274Z,100581.28
2017-11-21T23:32:03.469Z,100578.55
2017-11-21T23:34:35.265Z,100578.20
2017-11-21T23:37:19.359Z,100580.45
2017-11-21T23:40:04.710Z,100575.48
2017-11-21T23:42:38.184Z,100577.34
2017-11-21T23:45:20.846Z,100574.12
2017-11-21T23:48:03.386Z,100574.28
2017-11-21T23:50:40.231Z,100580.01
2017-11-21T23:53:18.440Z,100577.92
2017-11-21T23:56:14.696Z,100575.45
2017-11-21T23:58:53.904Z,100575.33
